Time;durP1;ratioP1;P1;durP2;ratioP2;P2;SDS_P1;SDS_P2;PMS_P1;PMS_P2;Temp;Humidity;BMP_temperature;BMP_pressure;BME280_temperature;BME280_humidity;BME280_pressure;Samples;Min_cycle;Max_cycle;Signal;HPM_P1;HPM_P2
2022/10/06 00:02:26;;;;;;;11.95;8.40;;;;;;;;;;5076712;28;20059;-74
2022/10/06 00:04:52;;;;;;;10.43;7.50;;;;;;;;;;5076671;28;20033;-74
2022/10/06 00:07:18;;;;;;;13.27;7.80;;;;;;;;;;5076304;28;20102;-75
2022/10/06 00:09:44;;;;;;;11.82;7.55;;;;;;;;;;5076577;28;20048;-74
2022/10/06 00:12:11;;;;;;;11.45;8.10;;;;;;;;;;5076872;28;20048;-74
2022/10/06 00:14:37;;;;;;;11.50;8.60;;;;;;;;;;5076321;28;20040;-74
2022/10/06 00:17:03;;;;;;;12.95;9.45;;;;;;;;;;5076740;28;20046;-74
2022/10/06 00:19:30;;;;;;;12.77;9.25;;;;;;;;;;5076121;28;20119;-74
2022/10/06 00:21:56;;;;;;;15.48;10.07;;;;;;;;;;5075777;28;20037;-74
2022/10/06 00:24:22;;;;;;;15.88;10.00;;;;;;;;;;5076243;28;20503;-74
2022/10/06 00:26:48;;;;;;;12.25;10.88;;;;;;;;;;5076196;28;20044;-74
2022/10/06 00:29:14;;;;;;;17.35;12.57;;;;;;;;;;5075914;28;20044;-74
2022/10/06 00:31:40;;;;;;;17.95;12.02;;;;;;;;;;5076701;28;20081;-74
2022/10/06 00:34:07;;;;;;;13.35;11.55;;;;;;;;;;5076431;28;20074;-74
2022/10/06 00:36:33;;;;;;;16.05;11.80;;;;;;;;;;5075751;28;20563;-74
2022/10/06 00:38:59;;;;;;;17.75;12.32;;;;;;;;;;5075986;28;20047;-74
2022/10/06 00:41:25;;;;;;;17.00;11.98;;;;;;;;;;5075703;28;20492;-74
2022/10/06 00:43:58;;;;;;;17.42;11.27;;;;;;;;;;5075799;28;20098;-74
2022/10/06 00:46:44;;;;;;;14.30;10.60;;;;;;;;;;5076360;28;20040;-74
2022/10/06 00:49:28;;;;;;;13.50;10.65;;;;;;;;;;5075711;28;20506;-74
2022/10/06 00:51:57;;;;;;;14.40;9.90;;;;;;;;;;5075455;28;20046;-74
2022/10/06 00:54:24;;;;;;;16.10;10.10;;;;;;;;;;5075419;28;20048;-74
2022/10/06 00:56:50;;;;;;;11.73;9.70;;;;;;;;;;5076292;28;20044;-74
2022/10/06 00:59:18;;;;;;;13.82;9.43;;;;;;;;;;5075711;28;20040;-74
2022/10/06 01:01:49;;;;;;;11.00;8.10;;;;;;;;;;5075566;28;20028;-74
2022/10/06 01:04:16;;;;;;;12.48;7.85;;;;;;;;;;5076022;28;20047;-74
2022/10/06 01:06:47;;;;;;;9.35;7.25;;;;;;;;;;5075679;28;20036;-74
2022/10/06 01:09:15;;;;;;;10.82;7.07;;;;;;;;;;5075906;28;20518;-74
2022/10/06 01:11:41;;;;;;;9.93;6.90;;;;;;;;;;5075630;28;20499;-74
2022/10/06 01:14:07;;;;;;;15.50;7.15;;;;;;;;;;5075758;28;20120;-74
2022/10/06 01:16:36;;;;;;;10.55;6.03;;;;;;;;;;5075569;28;20063;-74
2022/10/06 01:19:04;;;;;;;11.35;6.03;;;;;;;;;;5075240;28;20131;-74
2022/10/06 01:21:35;;;;;;;6.38;5.78;;;;;;;;;;5075487;28;20089;-75
2022/10/06 01:24:01;;;;;;;11.50;6.90;;;;;;;;;;5075747;28;20056;-74
2022/10/06 01:26:28;;;;;;;8.60;5.72;;;;;;;;;;5075309;28;20047;-74
2022/10/06 01:28:55;;;;;;;10.15;5.78;;;;;;;;;;5075298;28;20123;-75
2022/10/06 01:31:21;;;;;;;10.80;5.95;;;;;;;;;;5075860;28;20056;-75
2022/10/06 01:33:51;;;;;;;12.95;6.18;;;;;;;;;;5074164;28;20459;-75
2022/10/06 01:36:17;;;;;;;11.27;5.77;;;;;;;;;;5075501;28;20043;-74
2022/10/06 01:38:43;;;;;;;13.85;6.68;;;;;;;;;;5074907;28;20259;-75
2022/10/06 01:41:10;;;;;;;13.50;6.80;;;;;;;;;;5074851;28;20036;-75
2022/10/06 01:43:36;;;;;;;11.15;7.47;;;;;;;;;;5074817;28;20075;-75
2022/10/06 01:46:02;;;;;;;9.05;6.78;;;;;;;;;;5074420;28;20064;-75
2022/10/06 01:48:28;;;;;;;11.25;6.03;;;;;;;;;;5074482;28;20151;-75
2022/10/06 01:50:55;;;;;;;9.40;5.45;;;;;;;;;;5074458;28;20098;-75
2022/10/06 01:53:21;;;;;;;10.40;5.57;;;;;;;;;;5075192;28;20123;-75
2022/10/06 01:55:47;;;;;;;10.93;6.10;;;;;;;;;;5074779;28;20441;-75
2022/10/06 01:58:13;;;;;;;12.73;5.30;;;;;;;;;;5074448;28;20071;-75
2022/10/06 02:00:39;;;;;;;9.32;5.47;;;;;;;;;;5075208;28;20060;-75
2022/10/06 02:03:06;;;;;;;7.43;5.88;;;;;;;;;;5075202;28;20041;-75
2022/10/06 02:05:32;;;;;;;8.82;5.57;;;;;;;;;;5074769;28;20037;-74
2022/10/06 02:08:00;;;;;;;11.88;6.20;;;;;;;;;;5074710;28;20040;-75
2022/10/06 02:10:26;;;;;;;8.68;5.95;;;;;;;;;;5074513;28;20074;-74
2022/10/06 02:12:52;;;;;;;11.27;6.85;;;;;;;;;;5074052;28;20044;-75
2022/10/06 02:15:19;;;;;;;12.38;7.50;;;;;;;;;;5074719;28;20044;-74
2022/10/06 02:17:46;;;;;;;7.85;5.95;;;;;;;;;;5075009;28;20071;-75
2022/10/06 02:20:12;;;;;;;11.75;6.63;;;;;;;;;;5074717;28;20128;-74
2022/10/06 02:22:39;;;;;;;7.25;6.13;;;;;;;;;;5075299;28;20045;-74
2022/10/06 02:25:06;;;;;;;8.25;6.55;;;;;;;;;;5074638;28;20036;-74
2022/10/06 02:27:32;;;;;;;7.85;6.03;;;;;;;;;;5074419;28;20044;-75
2022/10/06 02:29:58;;;;;;;7.35;6.47;;;;;;;;;;5074307;28;20060;-75
2022/10/06 02:32:31;;;;;;;11.45;6.20;;;;;;;;;;5075209;28;20052;-75
2022/10/06 02:34:59;;;;;;;10.18;6.32;;;;;;;;;;5074644;28;20047;-74
2022/10/06 02:37:25;;;;;;;11.63;7.40;;;;;;;;;;5074778;28;20070;-75
2022/10/06 02:39:51;;;;;;;10.02;6.70;;;;;;;;;;5074500;28;20046;-74
2022/10/06 02:42:18;;;;;;;13.77;7.30;;;;;;;;;;5075098;28;20048;-74
2022/10/06 02:44:44;;;;;;;7.70;6.78;;;;;;;;;;5074491;28;20507;-74
2022/10/06 02:47:15;;;;;;;13.93;7.20;;;;;;;;;;5078108;28;20050;-74
2022/10/06 02:49:41;;;;;;;10.07;7.15;;;;;;;;;;5078557;28;20487;-75
2022/10/06 02:52:07;;;;;;;13.32;8.00;;;;;;;;;;5078977;28;20044;-75
2022/10/06 02:54:35;;;;;;;11.52;8.02;;;;;;;;;;5077863;28;20519;-75
2022/10/06 02:57:01;;;;;;;12.20;9.25;;;;;;;;;;5078020;28;20040;-74
2022/10/06 02:59:27;;;;;;;12.85;8.95;;;;;;;;;;5077775;28;20068;-74
2022/10/06 03:01:54;;;;;;;13.30;9.48;;;;;;;;;;5078042;28;20078;-74
2022/10/06 03:04:20;;;;;;;13.52;9.20;;;;;;;;;;5078040;28;20071;-74
2022/10/06 03:06:46;;;;;;;13.02;9.85;;;;;;;;;;5077670;28;20036;-74
2022/10/06 03:09:12;;;;;;;15.40;10.38;;;;;;;;;;5077467;28;20135;-75
2022/10/06 03:11:39;;;;;;;11.07;9.85;;;;;;;;;;5077407;28;20043;-74
2022/10/06 03:14:06;;;;;;;16.83;10.40;;;;;;;;;;5077438;28;20529;-74
2022/10/06 03:16:37;;;;;;;16.55;10.23;;;;;;;;;;5077311;28;20041;-74
2022/10/06 03:19:04;;;;;;;15.13;9.90;;;;;;;;;;5077433;28;20541;-74
2022/10/06 03:21:31;;;;;;;12.75;10.38;;;;;;;;;;5077217;28;20040;-74
2022/10/06 03:23:58;;;;;;;15.73;10.60;;;;;;;;;;5077785;28;20048;-74
2022/10/06 03:26:31;;;;;;;14.57;11.00;;;;;;;;;;5077079;28;20040;-74
2022/10/06 03:28:57;;;;;;;15.45;10.63;;;;;;;;;;5077192;28;20103;-74
2022/10/06 03:31:24;;;;;;;12.18;9.77;;;;;;;;;;5077327;28;20036;-74
2022/10/06 03:33:51;;;;;;;15.13;9.82;;;;;;;;;;5077627;28;20560;-74
2022/10/06 03:36:18;;;;;;;15.18;10.05;;;;;;;;;;5076956;28;20040;-74
2022/10/06 03:38:44;;;;;;;12.43;8.73;;;;;;;;;;5076886;28;20048;-74
2022/10/06 03:41:18;;;;;;;12.70;8.77;;;;;;;;;;5077706;28;20475;-74
2022/10/06 03:43:45;;;;;;;14.05;8.35;;;;;;;;;;5076868;28;20419;-75
2022/10/06 03:46:12;;;;;;;10.27;7.75;;;;;;;;;;5076661;28;20147;-74
2022/10/06 03:48:38;;;;;;;10.95;7.78;;;;;;;;;;5077076;28;20499;-74
2022/10/06 03:51:05;;;;;;;11.32;7.72;;;;;;;;;;5076987;28;20070;-74
2022/10/06 03:53:32;;;;;;;12.52;7.70;;;;;;;;;;5077081;28;20052;-75
2022/10/06 03:56:02;;;;;;;10.40;7.63;;;;;;;;;;5077031;28;20052;-74
2022/10/06 03:58:28;;;;;;;10.43;7.57;;;;;;;;;;5075093;28;20043;-75
2022/10/06 04:01:01;;;;;;;8.40;7.18;;;;;;;;;;5075928;28;20036;-75
2022/10/06 04:03:27;;;;;;;11.63;8.05;;;;;;;;;;5076343;28;20052;-75
2022/10/06 04:05:57;;;;;;;12.18;7.40;;;;;;;;;;5075856;28;20043;-75
2022/10/06 04:08:24;;;;;;;12.05;7.10;;;;;;;;;;5075936;28;20124;-74
2022/10/06 04:10:50;;;;;;;11.05;7.32;;;;;;;;;;5076214;28;20040;-75
2022/10/06 04:13:17;;;;;;;9.57;7.95;;;;;;;;;;5073411;28;20045;-75
2022/10/06 04:15:44;;;;;;;8.38;6.47;;;;;;;;;;5076059;28;20135;-74
2022/10/06 04:18:10;;;;;;;8.02;5.93;;;;;;;;;;5076024;28;20090;-74
2022/10/06 04:20:36;;;;;;;5.90;5.30;;;;;;;;;;5073279;28;20037;-74
2022/10/06 04:23:03;;;;;;;6.93;5.50;;;;;;;;;;5076061;28;20040;-74
2022/10/06 04:25:29;;;;;;;8.93;5.88;;;;;;;;;;5075640;28;20127;-74
2022/10/06 04:27:56;;;;;;;7.00;6.20;;;;;;;;;;5075270;28;20499;-74
2022/10/06 04:30:22;;;;;;;7.15;5.60;;;;;;;;;;5075474;28;20036;-74
2022/10/06 04:32:48;;;;;;;7.97;5.80;;;;;;;;;;5075786;28;20052;-75
2022/10/06 04:35:14;;;;;;;6.13;5.53;;;;;;;;;;5074189;28;20039;-75
2022/10/06 04:37:40;;;;;;;6.03;5.07;;;;;;;;;;5075995;28;20051;-74
2022/10/06 04:40:07;;;;;;;6.50;5.60;;;;;;;;;;5076327;28;20048;-74
2022/10/06 04:42:33;;;;;;;6.90;5.22;;;;;;;;;;5076707;28;20123;-75
2022/10/06 04:44:59;;;;;;;6.22;5.40;;;;;;;;;;5075686;28;20487;-74
2022/10/06 04:47:25;;;;;;;7.18;5.20;;;;;;;;;;5073742;28;20051;-74
2022/10/06 04:49:51;;;;;;;6.70;5.68;;;;;;;;;;5074123;28;20518;-74
2022/10/06 04:52:17;;;;;;;10.63;8.45;;;;;;;;;;5073943;28;20036;-74
2022/10/06 04:54:44;;;;;;;7.88;5.78;;;;;;;;;;5073710;28;20057;-74
2022/10/06 04:57:10;;;;;;;7.45;5.50;;;;;;;;;;5085205;28;20036;-74
2022/10/06 05:02:21;;;;;;;8.05;5.43;;;;;;;;;;5095687;28;20035;-74
2022/10/06 05:04:47;;;;;;;6.97;5.20;;;;;;;;;;5096203;28;20032;-74
2022/10/06 05:07:13;;;;;;;7.57;5.38;;;;;;;;;;5095707;28;20043;-74
2022/10/06 05:09:39;;;;;;;7.65;5.65;;;;;;;;;;5095578;28;20048;-74
2022/10/06 05:12:07;;;;;;;6.95;5.38;;;;;;;;;;5096186;28;20040;-74
2022/10/06 05:14:34;;;;;;;9.07;6.30;;;;;;;;;;5095991;28;20070;-74
2022/10/06 05:17:00;;;;;;;5.07;4.10;;;;;;;;;;5095431;28;20043;-74
2022/10/06 05:19:26;;;;;;;9.18;5.20;;;;;;;;;;5095818;28;20085;-74
2022/10/06 05:21:52;;;;;;;8.15;5.30;;;;;;;;;;5095997;28;20040;-74
2022/10/06 05:24:18;;;;;;;4.72;4.28;;;;;;;;;;5095105;28;20043;-74
2022/10/06 05:26:44;;;;;;;6.15;4.35;;;;;;;;;;5095312;28;20047;-74
2022/10/06 05:29:10;;;;;;;4.18;3.78;;;;;;;;;;5095354;28;20521;-74
2022/10/06 05:31:39;;;;;;;4.85;3.90;;;;;;;;;;5095598;28;20036;-74
2022/10/06 05:34:05;;;;;;;3.35;3.05;;;;;;;;;;5095854;28;20070;-74
2022/10/06 05:36:32;;;;;;;3.67;3.28;;;;;;;;;;5095405;28;20046;-74
2022/10/06 05:38:59;;;;;;;5.57;3.47;;;;;;;;;;5095676;28;20115;-74
2022/10/06 05:41:27;;;;;;;3.60;3.30;;;;;;;;;;5095649;28;20066;-74
2022/10/06 05:43:54;;;;;;;11.65;10.55;;;;;;;;;;5093548;28;20456;-74
2022/10/06 05:46:23;;;;;;;4.88;4.20;;;;;;;;;;5073067;28;20098;-74
2022/10/06 05:48:50;;;;;;;5.00;3.40;;;;;;;;;;5072354;28;20036;-74
2022/10/06 05:51:18;;;;;;;4.60;3.30;;;;;;;;;;5074199;28;20364;-74
2022/10/06 05:53:44;;;;;;;4.22;3.40;;;;;;;;;;5075362;28;20075;-74
2022/10/06 05:56:21;;;;;;;4.55;3.70;;;;;;;;;;5074516;28;20147;-74
2022/10/06 05:58:48;;;;;;;3.47;3.05;;;;;;;;;;5074304;28;20090;-74
2022/10/06 06:01:18;;;;;;;4.22;3.83;;;;;;;;;;5074622;28;20045;-74
2022/10/06 06:03:49;;;;;;;3.88;3.33;;;;;;;;;;5074822;28;20047;-74
2022/10/06 06:06:20;;;;;;;4.65;2.80;;;;;;;;;;5074772;28;20036;-74
2022/10/06 06:08:46;;;;;;;;;;;;;;;;;;5075004;28;20041;-75
2022/10/06 06:11:12;;;;;;;3.58;3.28;;;;;;;;;;5075019;28;20364;-74
2022/10/06 06:13:38;;;;;;;3.25;2.95;;;;;;;;;;5074459;28;20101;-73
2022/10/06 06:16:05;;;;;;;4.70;3.33;;;;;;;;;;5073649;28;20036;-73
2022/10/06 06:18:32;;;;;;;5.72;3.58;;;;;;;;;;5074315;28;20068;-73
2022/10/06 06:20:59;;;;;;;4.90;3.65;;;;;;;;;;5074842;28;20115;-73
2022/10/06 06:23:29;;;;;;;4.45;3.78;;;;;;;;;;5074100;28;20048;-73
2022/10/06 06:26:03;;;;;;;4.45;2.97;;;;;;;;;;5075002;28;20036;-73
2022/10/06 06:28:29;;;;;;;7.90;3.65;;;;;;;;;;5074655;28;20037;-73
2022/10/06 06:31:13;;;;;;;3.75;3.40;;;;;;;;;;5074333;28;20151;-73
2022/10/06 06:33:40;;;;;;;3.63;3.33;;;;;;;;;;5074757;28;20044;-73
2022/10/06 06:36:13;;;;;;;4.10;3.70;;;;;;;;;;5074264;28;20043;-73
2022/10/06 06:38:39;;;;;;;5.15;3.85;;;;;;;;;;5073864;28;20033;-73
2022/10/06 06:41:12;;;;;;;6.25;4.63;;;;;;;;;;5074250;28;20040;-73
2022/10/06 06:43:38;;;;;;;7.00;4.35;;;;;;;;;;5074279;28;20048;-73
2022/10/06 06:46:05;;;;;;;5.35;4.85;;;;;;;;;;5074853;28;20033;-73
2022/10/06 06:48:31;;;;;;;8.90;5.07;;;;;;;;;;5074084;28;20044;-73
2022/10/06 06:50:57;;;;;;;5.15;4.65;;;;;;;;;;5074148;28;20155;-73
2022/10/06 06:53:24;;;;;;;5.32;4.18;;;;;;;;;;5073788;28;20034;-73
2022/10/06 06:55:50;;;;;;;6.53;4.88;;;;;;;;;;5073702;28;20080;-73
2022/10/06 06:58:17;;;;;;;5.18;3.90;;;;;;;;;;5073839;28;20044;-73
2022/10/06 07:00:44;;;;;;;5.50;4.20;;;;;;;;;;5074077;28;20044;-73
2022/10/06 07:03:18;;;;;;;6.55;4.47;;;;;;;;;;5073754;28;20113;-73
2022/10/06 07:05:45;;;;;;;3.90;3.60;;;;;;;;;;5073100;28;20212;-73
2022/10/06 07:08:13;;;;;;;4.65;4.15;;;;;;;;;;5072507;28;20185;-73
2022/10/06 07:10:40;;;;;;;4.78;4.20;;;;;;;;;;5073347;28;20072;-73
2022/10/06 07:13:06;;;;;;;6.15;3.83;;;;;;;;;;5072642;28;20040;-73
2022/10/06 07:26:32;;;;;;;4.75;3.17;;;;;;;;;;5073190;28;20124;-73
2022/10/06 07:29:01;;;;;;;3.90;3.10;;;;;;;;;;5073346;28;20044;-73
2022/10/06 07:31:32;;;;;;;3.83;3.00;;;;;;;;;;5072167;28;20123;-74
2022/10/06 07:33:58;;;;;;;4.00;3.33;;;;;;;;;;5077324;28;20048;-74
2022/10/06 07:36:24;;;;;;;3.85;3.03;;;;;;;;;;5076676;28;20094;-74
2022/10/06 07:38:50;;;;;;;4.07;3.38;;;;;;;;;;5076400;28;20120;-75
2022/10/06 07:41:17;;;;;;;3.35;3.05;;;;;;;;;;5077013;28;20123;-73
2022/10/06 07:43:43;;;;;;;4.97;3.42;;;;;;;;;;5076953;28;20120;-73
2022/10/06 07:46:14;;;;;;;3.35;3.05;;;;;;;;;;5072328;28;20037;-73
2022/10/06 07:48:40;;;;;;;9.00;3.38;;;;;;;;;;5077464;28;20048;-73
2022/10/06 07:51:14;;;;;;;6.63;3.10;;;;;;;;;;5075914;28;20369;-73
2022/10/06 07:53:40;;;;;;;5.05;2.67;;;;;;;;;;5077116;28;20044;-73
2022/10/06 07:56:07;;;;;;;3.97;3.28;;;;;;;;;;5076989;28;20063;-73
2022/10/06 07:58:36;;;;;;;5.07;3.13;;;;;;;;;;5076059;28;20467;-73
2022/10/06 08:01:10;;;;;;;3.53;3.22;;;;;;;;;;5075477;28;20037;-74
2022/10/06 08:03:36;;;;;;;3.60;3.30;;;;;;;;;;5076786;28;20048;-73
2022/10/06 08:06:02;;;;;;;4.05;3.25;;;;;;;;;;5075283;28;20094;-73
2022/10/06 08:08:36;;;;;;;4.13;3.35;;;;;;;;;;5076128;28;20094;-73
2022/10/06 08:11:03;;;;;;;4.03;3.63;;;;;;;;;;5076011;28;20043;-73
2022/10/06 08:13:32;;;;;;;4.28;3.28;;;;;;;;;;5077187;28;20121;-73
2022/10/06 08:16:09;;;;;;;4.70;3.40;;;;;;;;;;5076842;28;20522;-73
2022/10/06 08:18:35;;;;;;;4.43;3.88;;;;;;;;;;5076672;28;20032;-73
2022/10/06 08:21:08;;;;;;;5.43;3.28;;;;;;;;;;5076743;28;20048;-73
2022/10/06 08:23:38;;;;;;;6.18;3.10;;;;;;;;;;5076796;28;20471;-73
2022/10/06 08:26:04;;;;;;;7.85;3.35;;;;;;;;;;5076602;28;20479;-73
2022/10/06 08:28:31;;;;;;;7.13;3.22;;;;;;;;;;5076599;28;20049;-73
2022/10/06 08:30:57;;;;;;;6.40;3.58;;;;;;;;;;5075665;28;20028;-73
2022/10/06 08:33:23;;;;;;;4.05;2.88;;;;;;;;;;5075755;28;20091;-73
2022/10/06 08:35:50;;;;;;;4.07;3.33;;;;;;;;;;5076347;28;20115;-73
2022/10/06 08:38:16;;;;;;;4.28;3.28;;;;;;;;;;5076554;28;20051;-72
2022/10/06 08:40:43;;;;;;;4.38;2.85;;;;;;;;;;5076080;28;20101;-72
2022/10/06 08:43:14;;;;;;;4.07;2.70;;;;;;;;;;5074515;28;20090;-72
2022/10/06 08:45:43;;;;;;;6.03;2.95;;;;;;;;;;5068122;28;20041;-72
2022/10/06 08:48:15;;;;;;;8.57;3.20;;;;;;;;;;5076119;28;20055;-72
2022/10/06 08:51:00;;;;;;;8.05;2.75;;;;;;;;;;5075004;28;20052;-72
2022/10/06 08:53:47;;;;;;;10.40;2.78;;;;;;;;;;5075408;28;20044;-72
2022/10/06 08:56:33;;;;;;;5.60;3.22;;;;;;;;;;5076462;28;20052;-72
2022/10/06 08:59:04;;;;;;;3.83;3.25;;;;;;;;;;5074681;28;20032;-72
2022/10/06 09:01:32;;;;;;;;;;;;;;;;;;5076145;28;20049;-72
2022/10/06 09:04:02;;;;;;;7.30;3.60;;;;;;;;;;5076330;28;20013;-73
2022/10/06 09:06:40;;;;;;;9.38;3.65;;;;;;;;;;5075206;28;20049;-72
2022/10/06 09:09:15;;;;;;;4.60;3.42;;;;;;;;;;5075814;28;20126;-72
2022/10/06 09:12:00;;;;;;;7.07;3.13;;;;;;;;;;5075905;28;20098;-72
2022/10/06 09:14:37;;;;;;;8.25;4.47;;;;;;;;;;5075787;28;20036;-72
2022/10/06 09:17:07;;;;;;;6.30;4.10;;;;;;;;;;5075302;28;20048;-73
2022/10/06 09:19:56;;;;;;;5.45;3.83;;;;;;;;;;5075293;28;20036;-72
2022/10/06 09:22:22;;;;;;;8.73;3.83;;;;;;;;;;5069736;28;20036;-72
2022/10/06 09:24:53;;;;;;;4.32;3.22;;;;;;;;;;5075194;28;20032;-72
2022/10/06 09:27:32;;;;;;;6.38;3.50;;;;;;;;;;5075052;28;20048;-72
2022/10/06 09:29:59;;;;;;;7.05;3.90;;;;;;;;;;5075382;28;20070;-72
2022/10/06 09:32:26;;;;;;;6.20;3.47;;;;;;;;;;5075381;28;20063;-73
2022/10/06 09:34:58;;;;;;;8.85;3.78;;;;;;;;;;5075293;28;20090;-73
2022/10/06 09:37:25;;;;;;;6.68;4.10;;;;;;;;;;5076108;28;20109;-72
2022/10/06 09:39:52;;;;;;;6.15;3.35;;;;;;;;;;5074935;28;20044;-72
2022/10/06 09:42:34;;;;;;;5.93;3.35;;;;;;;;;;5075368;28;20051;-73
2022/10/06 09:45:02;;;;;;;5.20;3.55;;;;;;;;;;5074837;28;20042;-72
2022/10/06 09:47:30;;;;;;;5.63;2.90;;;;;;;;;;5074215;28;20040;-73
2022/10/06 09:50:10;;;;;;;4.97;2.75;;;;;;;;;;5071028;28;20032;-73
2022/10/06 09:52:37;;;;;;;5.53;3.45;;;;;;;;;;5074849;28;20036;-73
2022/10/06 09:55:11;;;;;;;6.88;3.58;;;;;;;;;;5073068;28;20143;-72
2022/10/06 09:57:37;;;;;;;5.82;3.53;;;;;;;;;;5070631;28;20036;-73
2022/10/06 10:00:04;;;;;;;7.55;3.53;;;;;;;;;;5061170;28;20037;-72
2022/10/06 10:02:38;;;;;;;4.47;3.47;;;;;;;;;;5060894;28;20036;-72
2022/10/06 10:05:08;;;;;;;5.22;3.30;;;;;;;;;;5073792;28;20052;-72
2022/10/06 10:07:35;;;;;;;5.70;3.42;;;;;;;;;;5072736;28;20044;-72
2022/10/06 10:10:21;;;;;;;4.78;2.92;;;;;;;;;;5073995;28;20072;-72
2022/10/06 10:12:53;;;;;;;8.52;3.35;;;;;;;;;;5070790;28;20033;-72
2022/10/06 10:15:19;;;;;;;4.65;3.17;;;;;;;;;;5073009;28;20149;-73
2022/10/06 10:17:50;;;;;;;4.97;3.67;;;;;;;;;;5072884;28;20539;-72
2022/10/06 10:20:24;;;;;;;9.73;3.78;;;;;;;;;;5072999;28;20048;-72
2022/10/06 10:22:54;;;;;;;6.65;3.67;;;;;;;;;;5072965;28;20116;-72
2022/10/06 10:25:20;;;;;;;5.63;3.72;;;;;;;;;;5072798;28;20094;-73
2022/10/06 10:28:09;;;;;;;7.72;4.47;;;;;;;;;;5072975;28;20407;-73
2022/10/06 10:30:51;;;;;;;6.75;3.85;;;;;;;;;;5064818;28;20055;-72
2022/10/06 10:33:17;;;;;;;4.70;3.83;;;;;;;;;;5073250;28;20033;-72
2022/10/06 10:35:47;;;;;;;5.95;3.42;;;;;;;;;;5072647;28;20123;-73
2022/10/06 10:38:17;;;;;;;5.50;3.70;;;;;;;;;;5072648;28;20082;-73
2022/10/06 10:40:54;;;;;;;8.43;3.85;;;;;;;;;;5069852;28;20121;-73
2022/10/06 10:43:26;;;;;;;5.80;3.58;;;;;;;;;;5073665;28;20049;-73
2022/10/06 10:45:58;;;;;;;7.22;3.13;;;;;;;;;;5063050;28;20114;-73
2022/10/06 10:48:29;;;;;;;7.20;3.60;;;;;;;;;;5073014;28;20146;-73
2022/10/06 10:51:08;;;;;;;5.93;3.90;;;;;;;;;;5073070;28;20056;-72
2022/10/06 10:53:44;;;;;;;9.25;3.28;;;;;;;;;;5072988;28;20044;-73
2022/10/06 10:56:11;;;;;;;5.95;3.58;;;;;;;;;;5073149;28;20068;-73
2022/10/06 10:58:41;;;;;;;3.70;3.38;;;;;;;;;;5073409;28;20119;-72
2022/10/06 11:01:07;;;;;;;5.05;3.50;;;;;;;;;;5073214;28;20483;-73
2022/10/06 11:03:33;;;;;;;8.07;3.28;;;;;;;;;;5073180;28;20036;-73
2022/10/06 11:06:13;;;;;;;6.38;3.97;;;;;;;;;;5073327;28;20040;-73
2022/10/06 11:08:59;;;;;;;6.60;3.42;;;;;;;;;;5074402;28;20072;-72
2022/10/06 11:11:36;;;;;;;5.18;2.78;;;;;;;;;;5077296;28;20170;-73
2022/10/06 11:14:08;;;;;;;6.15;2.50;;;;;;;;;;5074243;28;20515;-73
2022/10/06 11:16:58;;;;;;;3.90;2.92;;;;;;;;;;5077090;28;20133;-73
2022/10/06 11:19:26;;;;;;;7.72;3.00;;;;;;;;;;5065784;28;20040;-73
2022/10/06 11:22:11;;;;;;;2.45;2.22;;;;;;;;;;5077088;28;20376;-73
2022/10/06 11:24:37;;;;;;;5.60;2.40;;;;;;;;;;5076581;28;20044;-72
2022/10/06 11:27:21;;;;;;;3.70;2.28;;;;;;;;;;5077114;28;20040;-72
2022/10/06 11:29:50;;;;;;;5.38;2.10;;;;;;;;;;5076935;28;20036;-72
2022/10/06 11:32:17;;;;;;;6.05;2.25;;;;;;;;;;5074966;28;20361;-73
2022/10/06 11:34:43;;;;;;;4.47;2.40;;;;;;;;;;5074904;28;20078;-72
2022/10/06 11:37:12;;;;;;;6.88;2.13;;;;;;;;;;5074971;28;20044;-72
2022/10/06 11:39:57;;;;;;;5.68;2.50;;;;;;;;;;5076410;28;20055;-73
2022/10/06 11:42:40;;;;;;;2.90;2.40;;;;;;;;;;5075892;28;20036;-72
2022/10/06 11:45:15;;;;;;;4.43;2.53;;;;;;;;;;5076033;28;20044;-72
2022/10/06 11:47:46;;;;;;;3.40;2.58;;;;;;;;;;5076012;28;20044;-72
2022/10/06 11:50:32;;;;;;;4.30;2.38;;;;;;;;;;5074941;28;20045;-72
2022/10/06 11:52:58;;;;;;;3.63;2.97;;;;;;;;;;5076387;28;20123;-73
2022/10/06 11:55:27;;;;;;;4.97;2.95;;;;;;;;;;5075925;28;20091;-72
2022/10/06 11:58:12;;;;;;;4.05;2.60;;;;;;;;;;5076173;28;20044;-73
2022/10/06 12:00:41;;;;;;;2.67;2.30;;;;;;;;;;5074815;28;20049;-72
2022/10/06 12:03:25;;;;;;;4.88;2.75;;;;;;;;;;5075459;28;20052;-72
2022/10/06 12:05:52;;;;;;;4.05;2.78;;;;;;;;;;5075156;28;20086;-73
2022/10/06 12:08:33;;;;;;;3.80;2.88;;;;;;;;;;5075699;28;20036;-73
2022/10/06 12:10:59;;;;;;;3.42;2.72;;;;;;;;;;5075583;28;20052;-72
2022/10/06 12:13:26;;;;;;;2.60;2.35;;;;;;;;;;5076211;28;20368;-72
2022/10/06 12:15:52;;;;;;;2.95;2.40;;;;;;;;;;5075096;28;20052;-72
2022/10/06 12:18:24;;;;;;;4.47;2.47;;;;;;;;;;5074469;28;20044;-72
2022/10/06 12:21:23;;;;;;;6.13;3.00;;;;;;;;;;5070691;28;20087;-73
2022/10/06 12:24:02;;;;;;;6.60;3.17;;;;;;;;;;5031310;28;20048;-73
2022/10/06 12:26:35;;;;;;;2.50;2.28;;;;;;;;;;5075939;28;20047;-73
2022/10/06 12:29:23;;;;;;;5.50;3.13;;;;;;;;;;5075188;28;20051;-72
2022/10/06 12:32:08;;;;;;;3.10;2.75;;;;;;;;;;5075062;28;20488;-73
2022/10/06 12:34:41;;;;;;;3.80;2.47;;;;;;;;;;5075173;28;20048;-72
2022/10/06 12:37:25;;;;;;;4.07;3.03;;;;;;;;;;5076211;28;20102;-72
2022/10/06 12:39:51;;;;;;;5.18;3.33;;;;;;;;;;5075829;28;20040;-72
2022/10/06 12:42:24;;;;;;;7.03;3.00;;;;;;;;;;5075405;28;20051;-72
2022/10/06 12:44:52;;;;;;;4.95;2.90;;;;;;;;;;5075904;28;20036;-72
2022/10/06 12:47:53;;;;;;;3.50;3.00;;;;;;;;;;5074278;28;20136;-74
2022/10/06 12:50:26;;;;;;;6.53;3.17;;;;;;;;;;5043940;28;20571;-74
2022/10/06 12:52:54;;;;;;;6.78;3.60;;;;;;;;;;5064778;28;20433;-73
2022/10/06 12:55:26;;;;;;;3.95;2.97;;;;;;;;;;5073722;28;20127;-75
2022/10/06 12:57:53;;;;;;;5.18;3.13;;;;;;;;;;5074212;28;20498;-75
2022/10/06 13:00:33;;;;;;;5.93;3.03;;;;;;;;;;5075974;28;20109;-75
2022/10/06 13:03:02;;;;;;;4.55;3.15;;;;;;;;;;5076244;28;20052;-75
2022/10/06 13:05:28;;;;;;;6.65;3.20;;;;;;;;;;5075265;28;20387;-75
2022/10/06 13:07:58;;;;;;;7.30;3.05;;;;;;;;;;5075459;28;20063;-75
2022/10/06 13:10:25;;;;;;;4.60;3.03;;;;;;;;;;5075184;28;20068;-75
2022/10/06 13:12:51;;;;;;;7.30;3.58;;;;;;;;;;5075869;28;20101;-75
2022/10/06 13:15:17;;;;;;;4.90;3.03;;;;;;;;;;5075686;28;20051;-75
2022/10/06 13:18:03;;;;;;;5.50;3.17;;;;;;;;;;5075474;28;20054;-75
2022/10/06 13:20:38;;;;;;;6.50;3.13;;;;;;;;;;5075503;28;20071;-75
2022/10/06 13:23:23;;;;;;;3.53;2.78;;;;;;;;;;5074685;28;20037;-75
2022/10/06 13:25:51;;;;;;;4.65;2.97;;;;;;;;;;5075211;28;20036;-75
2022/10/06 13:28:22;;;;;;;6.65;3.38;;;;;;;;;;5074814;28;20607;-75
2022/10/06 13:30:54;;;;;;;7.05;3.22;;;;;;;;;;5075077;28;20121;-75
2022/10/06 13:33:20;;;;;;;3.42;3.13;;;;;;;;;;5075382;28;20041;-75
2022/10/06 13:35:49;;;;;;;3.83;3.47;;;;;;;;;;5075063;28;20040;-75
2022/10/06 13:38:15;;;;;;;3.70;3.30;;;;;;;;;;5074713;28;20048;-74
2022/10/06 13:40:42;;;;;;;7.13;3.22;;;;;;;;;;5074704;28;20503;-74
2022/10/06 13:43:13;;;;;;;7.22;3.38;;;;;;;;;;5074509;28;20036;-75
2022/10/06 13:45:41;;;;;;;5.95;3.83;;;;;;;;;;5075266;28;20075;-75
2022/10/06 13:48:15;;;;;;;4.13;3.45;;;;;;;;;;5074883;28;20044;-74
2022/10/06 13:50:46;;;;;;;6.10;3.55;;;;;;;;;;5075408;28;20059;-75
2022/10/06 13:53:29;;;;;;;5.13;3.17;;;;;;;;;;5075084;28;20503;-75
2022/10/06 13:55:56;;;;;;;6.15;3.45;;;;;;;;;;5075720;28;20052;-74
2022/10/06 13:58:26;;;;;;;5.03;3.60;;;;;;;;;;5074716;28;20040;-75
2022/10/06 14:00:59;;;;;;;7.20;3.30;;;;;;;;;;5074355;28;20052;-74
2022/10/06 14:03:37;;;;;;;5.35;3.45;;;;;;;;;;5074069;28;20032;-74
2022/10/06 14:06:12;;;;;;;6.90;3.60;;;;;;;;;;5074929;28;20086;-74
2022/10/06 14:08:38;;;;;;;4.97;3.95;;;;;;;;;;5074227;28;20048;-74
2022/10/06 14:11:06;;;;;;;8.52;3.63;;;;;;;;;;5074635;28;20040;-74
2022/10/06 14:13:41;;;;;;;6.35;3.53;;;;;;;;;;5074708;28;20495;-74
2022/10/06 14:16:08;;;;;;;6.20;3.40;;;;;;;;;;5074431;28;20032;-75
2022/10/06 14:18:39;;;;;;;5.38;3.30;;;;;;;;;;5074854;28;20040;-75
2022/10/06 14:21:24;;;;;;;7.53;3.30;;;;;;;;;;5074525;28;20044;-75
2022/10/06 14:23:51;;;;;;;6.43;3.90;;;;;;;;;;5074941;28;20090;-74
2022/10/06 14:26:18;;;;;;;6.50;3.30;;;;;;;;;;5074347;28;20109;-74
2022/10/06 14:28:46;;;;;;;3.80;3.00;;;;;;;;;;5074224;28;20090;-74
2022/10/06 14:31:12;;;;;;;3.85;3.28;;;;;;;;;;5074393;28;20119;-74
2022/10/06 14:33:38;;;;;;;4.93;3.90;;;;;;;;;;5074606;28;20052;-74
2022/10/06 14:36:05;;;;;;;4.93;3.15;;;;;;;;;;5074356;28;20037;-74
2022/10/06 14:38:31;;;;;;;5.82;3.55;;;;;;;;;;5074040;28;20075;-74
2022/10/06 14:41:00;;;;;;;10.02;3.85;;;;;;;;;;5075243;28;20047;-74
2022/10/06 14:43:26;;;;;;;4.20;3.33;;;;;;;;;;5078392;28;20045;-74
2022/10/06 14:45:52;;;;;;;8.45;3.75;;;;;;;;;;5078563;28;20379;-74
2022/10/06 14:48:18;;;;;;;8.63;3.47;;;;;;;;;;5078396;28;20139;-74
2022/10/06 14:50:45;;;;;;;5.28;3.80;;;;;;;;;;5078230;28;20127;-74
2022/10/06 14:53:14;;;;;;;7.47;3.85;;;;;;;;;;5078847;28;20040;-74
2022/10/06 14:55:40;;;;;;;4.55;3.47;;;;;;;;;;5078254;28;20052;-74
2022/10/06 14:58:06;;;;;;;5.45;3.80;;;;;;;;;;5078170;28;20052;-74
2022/10/06 15:00:33;;;;;;;5.22;3.75;;;;;;;;;;5078427;28;20040;-74
2022/10/06 15:02:59;;;;;;;8.57;3.50;;;;;;;;;;5077956;28;20040;-74
2022/10/06 15:05:25;;;;;;;10.52;4.25;;;;;;;;;;5078196;28;20046;-74
2022/10/06 15:08:09;;;;;;;5.80;3.75;;;;;;;;;;5078032;28;20048;-74
2022/10/06 15:10:37;;;;;;;5.63;4.18;;;;;;;;;;5078364;28;20044;-74